Blackwell, Wisconsin
Current Conditions -  °F | °C
As of 7:54 AM on Monday 24 Nov 2014 (Local Time) from KIMT Reporting Station
Overcast Overcast  
Wind Chill: 32°   Ceiling: 700
Heat Index: 39°   Visibility: 10mi
Dew Point: 37°   Wind: 10mph
Humidity: 93%   Direction: 330°NNW
Pressure: 29"   Gusts: NA
Location:  45.5665°N, 88.6366°W
Report Text: KIMT 241354Z AUTO 33009KT 10SM OVC007 04/03 A2900 RMK AO2 SLP829 T00390028
Loading
Personal Weather Stations






























Interactive Weather Map New forecast layout! Learn more

10-Day Weather Forecast

Advertisements
Track Severe Weather on mobile